createdAt,value
2022-10-11T00:02:06.179Z,7.60
2022-10-11T00:04:34.218Z,7.40
2022-10-11T00:07:03.457Z,7.50
2022-10-11T00:09:31.476Z,8.30
2022-10-11T00:11:59.352Z,8.43
2022-10-11T00:14:27.700Z,7.70
2022-10-11T00:16:55.755Z,7.60
2022-10-11T00:19:23.932Z,7.87
2022-10-11T00:21:51.823Z,6.30
2022-10-11T00:24:21.100Z,6.43
2022-10-11T00:26:49.003Z,6.60
2022-10-11T00:29:16.922Z,7.80
2022-10-11T00:31:44.884Z,7.00
2022-10-11T00:34:13.386Z,7.20
2022-10-11T00:36:41.333Z,7.50
2022-10-11T00:39:09.275Z,7.50
2022-10-11T00:41:38.586Z,7.30
2022-10-11T00:44:11.531Z,6.27
2022-10-11T00:46:39.937Z,7.00
2022-10-11T00:49:14.725Z,6.70
2022-10-11T00:51:46.788Z,6.27
2022-10-11T00:54:17.554Z,7.10
2022-10-11T00:56:50.614Z,6.60
2022-10-11T00:59:25.061Z,6.53
2022-10-11T01:01:53.283Z,6.40
2022-10-11T01:04:21.729Z,7.30
2022-10-11T01:06:50.837Z,7.37
2022-10-11T01:09:20.315Z,8.00
2022-10-11T01:11:50.640Z,8.10
2022-10-11T01:14:40.800Z,7.30
2022-10-11T01:17:15.713Z,7.50
2022-10-11T01:19:56.337Z,8.10
2022-10-11T01:22:44.560Z,6.37
2022-10-11T01:25:19.153Z,7.70
2022-10-11T01:28:01.085Z,7.83
2022-10-11T01:30:31.022Z,7.33
2022-10-11T01:33:08.534Z,7.30
2022-10-11T01:35:40.477Z,8.47
2022-10-11T01:38:12.096Z,7.57
2022-10-11T01:40:45.422Z,8.53
2022-10-11T01:43:14.702Z,8.33
2022-10-11T01:45:44.962Z,7.47
2022-10-11T01:48:15.188Z,7.10
2022-10-11T01:50:45.906Z,7.10
2022-10-11T01:53:38.879Z,7.00
2022-10-11T01:56:14.446Z,7.73
2022-10-11T01:58:53.160Z,7.50
2022-10-11T02:01:28.812Z,8.30
2022-10-11T02:04:03.109Z,7.10
2022-10-11T02:06:34.231Z,7.00
2022-10-11T02:09:08.096Z,6.10
2022-10-11T02:11:36.438Z,7.47
2022-10-11T02:14:09.461Z,7.20
2022-10-11T02:16:41.881Z,7.60
2022-10-11T02:19:10.441Z,8.17
2022-10-11T02:21:40.217Z,8.80
2022-10-11T02:24:12.500Z,8.43
2022-10-11T02:26:42.153Z,6.60
2022-10-11T02:29:11.256Z,7.47
2022-10-11T02:31:40.982Z,6.60
2022-10-11T02:34:13.869Z,6.20
2022-10-11T02:36:50.085Z,6.97
2022-10-11T02:39:19.823Z,6.60
2022-10-11T02:41:47.970Z,7.50
2022-10-11T02:44:20.337Z,8.40
2022-10-11T02:46:50.466Z,7.77
2022-10-11T02:49:19.377Z,6.20
2022-10-11T02:51:47.294Z,4.90
2022-10-11T02:54:15.182Z,6.10
2022-10-11T02:56:43.065Z,7.13
2022-10-11T02:59:10.971Z,8.33
2022-10-11T03:01:38.902Z,8.63
2022-10-11T03:04:08.251Z,8.30
2022-10-11T03:06:36.123Z,6.20
2022-10-11T03:09:04.357Z,6.83
2022-10-11T03:11:32.220Z,6.30
2022-10-11T03:14:00.150Z,5.77
2022-10-11T03:16:28.051Z,4.80
2022-10-11T03:18:55.960Z,5.43
2022-10-11T03:21:25.812Z,6.10
2022-10-11T03:23:53.745Z,6.33
2022-10-11T03:26:21.662Z,5.87
2022-10-11T03:28:49.606Z,5.40
2022-10-11T03:31:18.629Z,5.73
2022-10-11T03:33:46.535Z,5.97
2022-10-11T03:36:14.463Z,5.77
2022-10-11T03:38:43.736Z,5.57
2022-10-11T03:41:11.624Z,5.73
2022-10-11T03:43:39.659Z,6.27
2022-10-11T03:46:08.555Z,5.50
2022-10-11T03:48:36.677Z,6.40
2022-10-11T03:51:04.777Z,5.00
2022-10-11T03:53:32.663Z,7.10
2022-10-11T03:56:07.373Z,5.93
2022-10-11T03:58:36.403Z,4.90
2022-10-11T04:01:04.596Z,5.60
2022-10-11T04:03:32.503Z,6.63
2022-10-11T04:06:00.610Z,6.43
2022-10-11T04:08:28.581Z,5.80
2022-10-11T04:10:56.574Z,6.70
2022-10-11T04:13:25.875Z,6.03
2022-10-11T04:15:53.745Z,6.30
2022-10-11T04:18:21.693Z,5.80
2022-10-11T04:20:49.621Z,6.17
2022-10-11T04:23:17.527Z,6.37
2022-10-11T04:25:45.562Z,6.10
2022-10-11T04:28:13.540Z,6.00
2022-10-11T04:30:42.829Z,6.17
2022-10-11T04:33:11.559Z,6.13
2022-10-11T04:35:39.549Z,7.00
2022-10-11T04:38:07.668Z,9.50
2022-10-11T04:40:35.613Z,10.10
2022-10-11T04:43:03.553Z,12.83
2022-10-11T04:45:32.157Z,13.13
2022-10-11T04:48:01.404Z,16.07
2022-10-11T04:50:29.307Z,11.97
2022-10-11T04:52:57.195Z,12.80
2022-10-11T04:55:25.077Z,12.20
2022-10-11T04:57:52.953Z,14.00
2022-10-11T05:00:20.872Z,12.40
2022-10-11T05:02:48.817Z,10.93
2022-10-11T05:05:18.242Z,12.70
2022-10-11T05:07:46.176Z,11.27
2022-10-11T05:10:14.590Z,10.70
2022-10-11T05:12:42.578Z,10.23
2022-10-11T05:15:11.289Z,15.40
2022-10-11T05:17:39.543Z,13.20
2022-10-11T05:20:08.628Z,12.20
2022-10-11T05:22:37.869Z,11.77
2022-10-11T05:25:06.581Z,11.43
2022-10-11T05:27:34.499Z,10.80
2022-10-11T05:30:02.426Z,17.03
2022-10-11T05:32:30.333Z,13.97
2022-10-11T05:34:58.293Z,13.53
2022-10-11T05:37:26.188Z,14.80
2022-10-11T05:39:55.478Z,12.17
2022-10-11T05:42:23.365Z,9.60
2022-10-11T05:44:51.278Z,7.90
2022-10-11T05:47:19.215Z,8.60
2022-10-11T05:49:47.088Z,7.20
2022-10-11T05:52:19.762Z,8.23
2022-10-11T05:54:47.650Z,8.47
2022-10-11T05:57:17.561Z,10.07
2022-10-11T05:59:45.480Z,9.17
2022-10-11T06:02:13.562Z,8.47
2022-10-11T06:04:41.451Z,8.97
2022-10-11T06:07:09.365Z,9.10
2022-10-11T06:09:37.245Z,7.00
2022-10-11T06:12:05.314Z,6.47
2022-10-11T06:14:34.837Z,7.80
2022-10-11T06:17:02.748Z,6.87
2022-10-11T06:19:30.662Z,6.60
2022-10-11T06:21:58.546Z,6.90
2022-10-11T06:24:26.439Z,7.70
2022-10-11T06:26:54.518Z,8.10
2022-10-11T06:29:23.157Z,14.90
2022-10-11T06:31:52.417Z,13.40
2022-10-11T06:34:20.485Z,8.43
2022-10-11T06:36:48.418Z,5.73
2022-10-11T06:39:16.419Z,5.50
2022-10-11T06:41:44.327Z,7.30
2022-10-11T06:44:14.334Z,6.60
2022-10-11T06:46:42.663Z,8.10
2022-10-11T06:49:13.294Z,7.77
2022-10-11T06:51:41.198Z,7.60
2022-10-11T06:54:09.138Z,6.70
2022-10-11T06:56:37.084Z,5.00
2022-10-11T06:59:04.983Z,4.90
2022-10-11T07:01:33.374Z,5.27
2022-10-11T07:04:03.076Z,5.60
2022-10-11T07:06:33.122Z,4.40
2022-10-11T07:09:01.709Z,4.80
2022-10-11T07:11:30.049Z,5.10
2022-10-11T07:13:59.061Z,4.40
2022-10-11T07:16:28.067Z,4.10
2022-10-11T07:19:00.449Z,4.77
2022-10-11T07:21:29.648Z,4.30
2022-10-11T07:23:59.049Z,3.97
2022-10-11T07:26:26.941Z,5.00
2022-10-11T07:28:55.051Z,4.63
2022-10-11T07:31:25.270Z,4.77
2022-10-11T07:33:53.268Z,5.20
2022-10-11T07:36:23.161Z,6.87
2022-10-11T07:38:51.204Z,5.93
2022-10-11T07:41:20.589Z,7.33
2022-10-11T07:43:49.891Z,6.50
2022-10-11T07:46:18.007Z,7.57
2022-10-11T07:48:46.015Z,9.97
2022-10-11T07:51:18.187Z,5.90
2022-10-11T07:53:47.424Z,10.43
2022-10-11T07:56:16.690Z,5.30
2022-10-11T07:58:49.908Z,4.83
2022-10-11T08:01:17.912Z,7.10
2022-10-11T08:03:45.827Z,5.90
2022-10-11T08:06:15.968Z,3.80
2022-10-11T08:08:44.099Z,4.20
2022-10-11T08:11:12.450Z,4.90
2022-10-11T08:13:40.333Z,5.70
2022-10-11T08:16:14.013Z,4.00
2022-10-11T08:18:41.859Z,4.70
2022-10-11T08:21:10.436Z,3.50
2022-10-11T08:23:38.428Z,3.87
2022-10-11T08:26:07.702Z,3.80
2022-10-11T08:28:35.875Z,3.80
2022-10-11T08:31:04.271Z,3.93
2022-10-11T08:33:33.624Z,4.00
2022-10-11T08:36:06.023Z,4.23
2022-10-11T08:38:34.552Z,4.60
2022-10-11T08:41:02.918Z,4.80
2022-10-11T08:43:43.582Z,5.07
2022-10-11T08:46:11.998Z,4.23
2022-10-11T08:48:42.998Z,4.60
2022-10-11T08:51:16.567Z,4.10
2022-10-11T08:53:48.200Z,4.37
2022-10-11T08:56:16.868Z,4.17
2022-10-11T08:58:48.350Z,3.73
2022-10-11T09:01:20.011Z,3.63
2022-10-11T09:03:49.933Z,3.90
2022-10-11T09:06:24.156Z,3.97
2022-10-11T09:09:08.770Z,4.33
2022-10-11T09:11:45.222Z,4.23
2022-10-11T09:14:33.875Z,3.87
2022-10-11T09:17:06.397Z,4.07
2022-10-11T09:20:12.864Z,4.97
2022-10-11T09:22:48.021Z,4.13
2022-10-11T09:25:26.868Z,4.73
2022-10-11T09:28:07.313Z,4.10
2022-10-11T09:30:37.352Z,5.20
2022-10-11T09:33:12.867Z,7.50
2022-10-11T09:35:44.303Z,6.47
2022-10-11T09:38:18.259Z,5.70
2022-10-11T09:40:54.891Z,5.30
2022-10-11T09:43:22.848Z,6.37
2022-10-11T09:45:50.729Z,6.90
2022-10-11T09:48:21.821Z,5.23
2022-10-11T09:50:52.148Z,5.20
2022-10-11T09:53:21.872Z,6.33
2022-10-11T09:55:53.515Z,5.87
2022-10-11T09:58:29.888Z,6.33
2022-10-11T10:01:05.111Z,6.17
2022-10-11T10:03:37.436Z,9.53
2022-10-11T10:06:09.480Z,6.77
2022-10-11T10:08:37.934Z,6.87
2022-10-11T10:11:07.416Z,6.03
2022-10-11T10:13:45.277Z,6.93
2022-10-11T10:16:21.992Z,6.50
2022-10-11T10:18:53.411Z,7.30
2022-10-11T10:21:29.462Z,6.30
2022-10-11T10:24:00.142Z,6.93
2022-10-11T10:26:28.529Z,7.53
2022-10-11T10:29:02.660Z,5.97
2022-10-11T10:32:09.151Z,7.97
2022-10-11T10:34:29.805Z,6.30
2022-10-11T10:37:02.780Z,7.00
2022-10-11T10:39:35.256Z,7.03
2022-10-11T10:42:04.957Z,8.30
2022-10-11T10:44:32.813Z,7.43
2022-10-11T10:47:07.013Z,7.77
2022-10-11T10:49:54.930Z,7.30
2022-10-11T10:52:49.718Z,6.90
2022-10-11T10:55:24.980Z,8.67
2022-10-11T10:58:20.592Z,8.23
2022-10-11T11:00:50.459Z,7.70
2022-10-11T11:03:23.733Z,8.00
2022-10-11T11:05:59.434Z,8.27
2022-10-11T11:08:39.975Z,9.27
2022-10-11T11:11:22.270Z,8.73
2022-10-11T11:13:56.700Z,8.80
2022-10-11T11:16:29.720Z,8.97
2022-10-11T11:19:02.202Z,7.87
2022-10-11T11:21:41.399Z,11.50
2022-10-11T11:24:15.786Z,12.00
2022-10-11T11:26:49.212Z,11.53
2022-10-11T11:29:25.397Z,15.00
2022-10-11T11:32:10.525Z,11.40
2022-10-11T11:34:40.040Z,15.20
2022-10-11T11:37:12.829Z,9.83
2022-10-11T11:39:44.931Z,8.70
2022-10-11T11:42:15.306Z,9.00
2022-10-11T11:44:45.958Z,12.00
2022-10-11T11:47:19.111Z,10.87
2022-10-11T11:49:49.996Z,10.43
2022-10-11T11:52:21.826Z,11.80
2022-10-11T11:55:00.089Z,11.55
2022-10-11T11:57:45.937Z,9.90
2022-10-11T12:00:17.146Z,10.83
2022-10-11T12:02:46.738Z,10.53
2022-10-11T12:05:18.257Z,11.07
2022-10-11T12:07:52.521Z,11.20
2022-10-11T12:10:34.851Z,11.73
2022-10-11T12:13:11.533Z,11.73
2022-10-11T12:15:39.596Z,11.40
2022-10-11T12:18:16.315Z,11.93
2022-10-11T12:20:45.166Z,12.40
2022-10-11T12:23:41.224Z,14.30
2022-10-11T12:26:44.107Z,13.07
2022-10-11T12:29:47.550Z,12.27
2022-10-11T12:32:51.285Z,13.40
2022-10-11T12:35:43.323Z,12.73
2022-10-11T12:38:17.369Z,12.63
2022-10-11T12:40:47.277Z,12.90
2022-10-11T12:43:36.126Z,12.20
2022-10-11T12:46:40.374Z,12.67
2022-10-11T12:49:21.355Z,12.23
2022-10-11T12:51:57.609Z,11.50
2022-10-11T12:55:04.497Z,12.47
2022-10-11T12:58:04.386Z,11.50
2022-10-11T13:00:35.672Z,11.20
2022-10-11T13:03:07.010Z,11.37
2022-10-11T13:05:45.042Z,9.43
2022-10-11T13:08:16.751Z,13.70
2022-10-11T13:10:46.730Z,15.77
2022-10-11T13:13:19.192Z,12.43
2022-10-11T13:15:48.554Z,10.90
2022-10-11T13:18:17.712Z,11.03
2022-10-11T13:20:46.048Z,14.20
2022-10-11T13:23:22.780Z,13.23
2022-10-11T13:25:50.949Z,13.13
2022-10-11T13:28:19.794Z,13.20
2022-10-11T13:30:51.505Z,13.00
2022-10-11T13:33:21.521Z,12.93
2022-10-11T13:35:49.570Z,12.50
2022-10-11T13:38:22.096Z,12.37
2022-10-11T13:40:51.270Z,12.50
2022-10-11T13:43:21.728Z,12.47
2022-10-11T13:45:51.068Z,11.30
2022-10-11T13:48:19.111Z,11.23
2022-10-11T13:50:52.331Z,10.63
2022-10-11T13:53:24.407Z,10.43
2022-10-11T13:55:54.278Z,9.70
2022-10-11T13:58:26.498Z,9.10
2022-10-11T14:00:57.686Z,10.03
2022-10-11T14:03:36.833Z,11.67
2022-10-11T14:06:05.242Z,11.83
2022-10-11T14:08:37.716Z,9.57
2022-10-11T14:11:06.818Z,9.10
2022-10-11T14:13:36.857Z,8.57
2022-10-11T14:16:09.219Z,8.60
2022-10-11T14:18:44.379Z,8.23
2022-10-11T14:21:31.421Z,7.57
2022-10-11T14:24:01.189Z,9.20
2022-10-11T14:26:33.721Z,16.90
2022-10-11T14:29:03.545Z,10.13
2022-10-11T14:31:32.885Z,10.43
2022-10-11T14:34:00.903Z,8.70
2022-10-11T14:36:28.807Z,8.53
2022-10-11T14:38:56.794Z,7.67
2022-10-11T14:41:24.799Z,8.90
2022-10-11T14:43:56.326Z,8.20
2022-10-11T14:46:25.435Z,8.13
2022-10-11T14:48:56.211Z,8.63
2022-10-11T14:51:26.706Z,8.67
2022-10-11T14:53:54.657Z,7.27
2022-10-11T14:56:22.629Z,6.60
2022-10-11T14:58:50.922Z,6.30
2022-10-11T15:01:18.915Z,7.17
2022-10-11T15:03:46.857Z,7.47
2022-10-11T15:06:19.457Z,7.07
2022-10-11T15:08:47.638Z,7.63
2022-10-11T15:11:17.085Z,7.20
2022-10-11T15:13:45.501Z,8.73
2022-10-11T15:16:14.477Z,14.83
2022-10-11T15:18:42.479Z,11.90
2022-10-11T15:21:12.993Z,19.30
2022-10-11T15:23:42.321Z,7.67
2022-10-11T15:26:11.472Z,6.43
2022-10-11T15:28:39.447Z,7.33
2022-10-11T15:31:07.408Z,8.77
2022-10-11T15:33:35.303Z,6.60
2022-10-11T15:36:03.502Z,7.60
2022-10-11T15:38:31.692Z,11.93
2022-10-11T15:41:01.086Z,8.20
2022-10-11T15:43:28.956Z,14.90
2022-10-11T15:45:57.685Z,10.60
2022-10-11T15:48:27.380Z,9.83
2022-10-11T15:50:55.363Z,12.47
2022-10-11T15:53:25.876Z,13.47
2022-10-11T15:55:55.024Z,12.57
2022-10-11T15:58:26.240Z,9.90
2022-10-11T16:00:56.055Z,9.17
2022-10-11T16:03:26.160Z,7.60
2022-10-11T16:05:54.555Z,8.47
2022-10-11T16:08:23.148Z,8.07
2022-10-11T16:10:51.561Z,8.40
2022-10-11T16:13:19.865Z,8.50
2022-10-11T16:15:49.912Z,11.00
2022-10-11T16:18:20.202Z,12.90
2022-10-11T16:20:51.091Z,11.27
2022-10-11T16:23:19.616Z,11.30
2022-10-11T16:25:47.721Z,11.10
2022-10-11T16:28:15.618Z,11.20
2022-10-11T16:30:44.214Z,12.90
2022-10-11T16:33:13.468Z,15.63
2022-10-11T16:35:42.149Z,13.97
2022-10-11T16:38:10.370Z,10.67
2022-10-11T16:40:39.103Z,14.00
2022-10-11T16:43:08.105Z,16.10
2022-10-11T16:45:36.883Z,15.10
2022-10-11T16:48:05.513Z,17.53
2022-10-11T16:50:39.275Z,12.40
2022-10-11T16:53:07.631Z,12.87
2022-10-11T16:55:35.506Z,9.90
2022-10-11T16:58:03.401Z,10.10
2022-10-11T17:00:31.353Z,10.50
2022-10-11T17:02:59.360Z,11.83
2022-10-11T17:05:27.374Z,10.30
2022-10-11T17:07:56.608Z,12.00
2022-10-11T17:10:39.394Z,11.67
2022-10-11T17:13:07.451Z,14.80
2022-10-11T17:15:36.120Z,13.23
2022-10-11T17:18:04.740Z,12.80
2022-10-11T17:20:32.637Z,12.00
2022-10-11T17:23:01.985Z,12.80
2022-10-11T17:25:29.897Z,14.40
2022-10-11T17:27:58.141Z,15.00
2022-10-11T17:30:26.275Z,14.40
2022-10-11T17:32:54.223Z,14.90
2022-10-11T17:35:22.076Z,14.50
2022-10-11T17:37:50.596Z,15.23
2022-10-11T17:40:20.139Z,13.03
2022-10-11T17:42:48.033Z,12.00
2022-10-11T17:45:15.982Z,12.70
2022-10-11T17:47:43.954Z,15.20
2022-10-11T17:50:12.024Z,13.90
2022-10-11T17:52:39.918Z,12.63
2022-10-11T17:55:08.249Z,13.20
2022-10-11T17:57:37.539Z,15.40
2022-10-11T18:00:06.546Z,13.80
2022-10-11T18:02:34.462Z,13.70
2022-10-11T18:05:03.326Z,16.37
2022-10-11T18:07:31.233Z,14.63
2022-10-11T18:10:01.895Z,24.80
2022-10-11T18:12:30.135Z,23.70
2022-10-11T18:14:59.501Z,24.70
2022-10-11T18:17:27.373Z,22.67
2022-10-11T18:19:55.269Z,16.40
2022-10-11T18:22:23.129Z,12.40
2022-10-11T18:24:51.046Z,14.13
2022-10-11T18:27:19.143Z,14.50
2022-10-11T18:29:47.031Z,14.57
2022-10-11T18:32:18.100Z,14.33
2022-10-11T18:34:46.096Z,14.17
2022-10-11T18:37:14.049Z,12.50
2022-10-11T18:39:41.990Z,12.20
2022-10-11T18:42:09.883Z,13.60
2022-10-11T18:44:37.743Z,13.17
2022-10-11T18:47:05.981Z,12.73
2022-10-11T18:49:35.659Z,12.30
2022-10-11T18:52:03.682Z,14.50
2022-10-11T18:54:31.637Z,13.17
2022-10-11T18:56:59.858Z,14.97
2022-10-11T18:59:27.876Z,14.90
2022-10-11T19:01:55.835Z,13.70
2022-10-11T19:04:23.758Z,13.10
2022-10-11T19:06:53.442Z,14.87
2022-10-11T19:09:23.313Z,12.50
2022-10-11T19:11:52.029Z,12.90
2022-10-11T19:14:22.046Z,13.53
2022-10-11T19:16:51.618Z,12.50
2022-10-11T19:19:21.207Z,12.83
2022-10-11T19:21:49.543Z,12.03
2022-10-11T19:24:20.353Z,14.27
2022-10-11T19:26:48.829Z,14.93
2022-10-11T19:29:19.822Z,13.07
2022-10-11T19:31:49.313Z,14.63
2022-10-11T19:34:17.658Z,13.93
2022-10-11T19:36:45.576Z,15.30
2022-10-11T19:39:14.567Z,15.10
2022-10-11T19:41:44.712Z,17.30
2022-10-11T19:44:12.962Z,14.37
2022-10-11T19:46:58.315Z,14.70
2022-10-11T19:49:28.221Z,14.50
2022-10-11T19:51:56.220Z,14.97
2022-10-11T19:54:24.498Z,15.60
2022-10-11T19:56:53.954Z,16.50
2022-10-11T19:59:21.861Z,15.80
2022-10-11T20:01:52.984Z,16.40
2022-10-11T20:07:09.379Z,16.70
2022-10-11T20:09:37.317Z,15.63
2022-10-11T20:12:06.960Z,15.57
2022-10-11T20:14:34.915Z,15.17
2022-10-11T20:17:02.804Z,14.73
2022-10-11T20:19:31.389Z,15.50
2022-10-11T20:21:59.976Z,14.50
2022-10-11T20:24:32.527Z,13.00
2022-10-11T20:27:01.611Z,14.40
2022-10-11T20:29:30.937Z,12.90
2022-10-11T20:31:59.452Z,12.70
2022-10-11T20:34:28.314Z,14.13
2022-10-11T20:36:56.217Z,13.40
2022-10-11T20:39:24.704Z,12.13
2022-10-11T20:41:52.659Z,13.33
2022-10-11T20:44:20.556Z,14.00
2022-10-11T20:46:49.852Z,13.20
2022-10-11T20:49:19.837Z,13.30
2022-10-11T20:51:47.880Z,12.47
2022-10-11T20:54:16.299Z,11.83
2022-10-11T20:56:44.287Z,10.67
2022-10-11T20:59:12.245Z,11.93
2022-10-11T21:01:41.603Z,13.20
2022-10-11T21:04:19.971Z,14.30
2022-10-11T21:06:48.342Z,12.80
2022-10-11T21:09:17.174Z,14.70
2022-10-11T21:11:45.424Z,14.23
2022-10-11T21:14:13.417Z,13.23
2022-10-11T21:16:41.386Z,12.40
2022-10-11T21:19:14.338Z,13.30
2022-10-11T21:21:42.322Z,13.90
2022-10-11T21:24:10.209Z,13.20
2022-10-11T21:26:38.104Z,12.30
2022-10-11T21:29:06.119Z,13.17
2022-10-11T21:31:34.622Z,11.97
2022-10-11T21:34:03.286Z,13.10
2022-10-11T21:36:32.573Z,12.30
2022-10-11T21:39:00.573Z,13.07
2022-10-11T21:41:30.140Z,13.63
2022-10-11T21:43:58.603Z,14.93
2022-10-11T21:46:47.459Z,14.17
2022-10-11T21:49:16.030Z,13.20
2022-10-11T21:51:45.318Z,12.37
2022-10-11T21:54:13.233Z,12.70
2022-10-11T21:56:41.158Z,13.43
2022-10-11T21:59:12.024Z,13.03
2022-10-11T22:01:40.789Z,13.40
2022-10-11T22:04:09.230Z,12.70
2022-10-11T22:06:37.968Z,12.63
2022-10-11T22:09:08.240Z,12.43
2022-10-11T22:11:36.550Z,13.57
2022-10-11T22:14:04.455Z,16.13
2022-10-11T22:16:34.153Z,15.20
2022-10-11T22:19:02.070Z,13.60
2022-10-11T22:21:30.108Z,14.50
2022-10-11T22:23:58.076Z,14.63
2022-10-11T22:26:30.602Z,13.30
2022-10-11T22:28:59.014Z,13.10
2022-10-11T22:31:27.355Z,13.83
2022-10-11T22:33:55.843Z,14.00
2022-10-11T22:36:24.943Z,15.03
2022-10-11T22:38:53.445Z,15.17
2022-10-11T22:41:21.395Z,14.57
2022-10-11T22:43:50.714Z,13.70
2022-10-11T22:46:18.665Z,14.37
2022-10-11T22:48:46.545Z,16.27
2022-10-11T22:51:14.705Z,14.97
2022-10-11T22:53:42.656Z,14.30
2022-10-11T22:56:11.221Z,14.00
2022-10-11T22:58:39.140Z,15.00
2022-10-11T23:01:09.782Z,14.47
2022-10-11T23:03:37.781Z,14.20
2022-10-11T23:06:06.278Z,15.40
2022-10-11T23:08:34.174Z,15.43
2022-10-11T23:11:04.365Z,15.70
2022-10-11T23:13:32.281Z,16.23
2022-10-11T23:16:00.285Z,14.43
2022-10-11T23:18:29.578Z,13.83
2022-10-11T23:21:00.830Z,13.30
2022-10-11T23:23:28.731Z,13.10
2022-10-11T23:26:04.891Z,13.47
2022-10-11T23:28:32.840Z,14.00
2022-10-11T23:31:00.745Z,13.90
2022-10-11T23:33:30.841Z,14.80
2022-10-11T23:35:58.712Z,16.63
2022-10-11T23:38:26.614Z,16.57
2022-10-11T23:40:54.483Z,16.60
2022-10-11T23:43:22.775Z,14.60
2022-10-11T23:45:51.217Z,14.73
2022-10-11T23:48:19.111Z,15.40
2022-10-11T23:50:48.398Z,15.90
2022-10-11T23:53:16.318Z,15.53
2022-10-11T23:55:44.450Z,16.40
2022-10-11T23:58:12.333Z,17.23
